Time;durP1;ratioP1;P1;durP2;ratioP2;P2;SDS_P1;SDS_P2;PMS_P1;PMS_P2;Temp;Humidity;BMP_temperature;BMP_pressure;BME280_temperature;BME280_humidity;BME280_pressure;Samples;Min_cycle;Max_cycle;Signal;HPM_P1;HPM_P2
2024/01/29 00:02:37;;;;;;;4.75;1.85;;;;;;;6.81;54.33;102676.34;7392250;19;20042;-56
2024/01/29 00:05:07;;;;;;;6.05;2.00;;;;;;;6.82;54.13;102674.56;7392325;19;20043;-57
2024/01/29 00:07:43;;;;;;;5.60;2.17;;;;;;;6.87;54.25;102680.59;7389751;19;20025;-55
2024/01/29 00:10:14;;;;;;;5.03;2.15;;;;;;;6.78;54.27;102668.50;7391544;19;20487;-57
2024/01/29 00:12:45;;;;;;;5.05;2.10;;;;;;;6.73;54.07;102672.19;7392189;19;20032;-59
2024/01/29 00:15:16;;;;;;;4.07;1.90;;;;;;;6.66;54.61;102666.22;7391160;19;20023;-57
2024/01/29 00:17:48;;;;;;;6.93;2.20;;;;;;;6.67;54.58;102661.81;7390965;19;20104;-58
2024/01/29 00:20:20;;;;;;;3.60;1.73;;;;;;;6.56;55.09;102655.06;7389823;19;20356;-56
2024/01/29 00:22:52;;;;;;;3.70;2.05;;;;;;;6.63;54.57;102662.78;7391381;19;20018;-57
2024/01/29 00:25:22;;;;;;;6.10;2.22;;;;;;;6.61;54.60;102656.72;7390883;19;20011;-58
2024/01/29 00:27:53;;;;;;;5.07;2.15;;;;;;;6.58;54.51;102665.56;7389620;19;20424;-57
2024/01/29 00:30:24;;;;;;;7.13;2.42;;;;;;;6.59;54.94;102668.13;7391030;19;20011;-58
2024/01/29 00:32:55;;;;;;;4.03;1.90;;;;;;;6.54;54.89;102666.53;7391473;19;20051;-58
2024/01/29 00:35:27;;;;;;;5.35;2.00;;;;;;;6.53;54.89;102652.53;7390664;19;20090;-57
2024/01/29 00:37:58;;;;;;;4.22;1.80;;;;;;;6.58;54.65;102666.41;7390577;19;20018;-58
2024/01/29 00:40:32;;;;;;;4.60;1.73;;;;;;;6.46;55.30;102668.50;7390791;19;20014;-58
2024/01/29 00:43:03;;;;;;;5.50;2.17;;;;;;;6.38;55.17;102662.59;7390906;19;20553;-56
2024/01/29 00:45:39;;;;;;;4.93;1.98;;;;;;;6.41;55.48;102671.25;7389892;19;20035;-57
2024/01/29 00:48:10;;;;;;;4.70;2.00;;;;;;;6.44;55.43;102654.50;7388762;19;20022;-57
2024/01/29 00:50:40;;;;;;;5.68;1.95;;;;;;;6.33;55.68;102652.16;7390706;19;20014;-57
2024/01/29 00:53:11;;;;;;;5.22;1.92;;;;;;;6.23;56.21;102651.53;7391008;19;20039;-55
2024/01/29 00:55:45;;;;;;;7.15;2.55;;;;;;;6.20;56.20;102650.75;7389533;19;20549;-56
2024/01/29 00:58:16;;;;;;;6.32;2.25;;;;;;;6.12;56.35;102647.44;7390452;19;20511;-56
2024/01/29 01:00:50;;;;;;;6.05;2.15;;;;;;;6.06;56.57;102648.44;7390621;19;20022;-57
2024/01/29 01:03:21;;;;;;;4.47;2.05;;;;;;;6.04;56.57;102650.25;7390692;19;20107;-56
2024/01/29 01:05:52;;;;;;;4.50;1.80;;;;;;;6.05;56.72;102649.34;7388629;19;20022;-57
2024/01/29 01:08:22;;;;;;;4.88;2.15;;;;;;;6.02;56.98;102649.41;7390519;19;20029;-55
2024/01/29 01:10:53;;;;;;;5.45;2.50;;;;;;;6.03;56.93;102651.16;7389881;19;20126;-57
2024/01/29 01:13:23;;;;;;;5.72;2.42;;;;;;;6.08;56.63;102650.13;7390402;19;20022;-57
2024/01/29 01:15:54;;;;;;;5.57;2.15;;;;;;;5.98;56.77;102642.50;7389300;19;20047;-56
2024/01/29 01:18:25;;;;;;;4.82;1.90;;;;;;;6.04;56.63;102652.88;7389553;19;20019;-57
2024/01/29 01:20:55;;;;;;;5.45;2.20;;;;;;;6.12;56.56;102648.31;7389802;19;20006;-55
2024/01/29 01:23:27;;;;;;;5.90;2.30;;;;;;;6.14;56.63;102653.50;7389614;19;20134;-57
2024/01/29 01:25:57;;;;;;;4.78;2.30;;;;;;;6.14;56.44;102643.00;7388927;19;20018;-57
2024/01/29 01:28:31;;;;;;;4.38;2.20;;;;;;;6.20;56.28;102650.75;7389709;19;20018;-57
2024/01/29 01:31:02;;;;;;;4.80;1.90;;;;;;;6.26;55.65;102647.97;7394264;19;20398;-58
2024/01/29 01:33:39;;;;;;;4.90;1.90;;;;;;;6.35;55.46;102645.09;7397198;19;20140;-56
2024/01/29 01:36:10;;;;;;;5.45;2.13;;;;;;;6.38;55.27;102646.78;7395505;19;20376;-53
2024/01/29 01:38:42;;;;;;;5.20;1.92;;;;;;;6.46;55.03;102648.31;7397104;19;20090;-56
2024/01/29 01:41:12;;;;;;;6.68;2.38;;;;;;;6.49;54.56;102642.13;7397171;19;20034;-57
2024/01/29 01:43:43;;;;;;;5.15;2.45;;;;;;;6.53;54.42;102649.88;7396972;19;20018;-54
2024/01/29 01:46:22;;;;;;;4.28;1.88;;;;;;;6.62;54.23;102656.66;7394193;19;20026;-55
2024/01/29 01:48:54;;;;;;;3.90;1.58;;;;;;;6.58;54.11;102652.38;7397461;19;20030;-58
2024/01/29 01:51:25;;;;;;;5.93;1.80;;;;;;;6.55;54.17;102655.97;7396263;19;20015;-57
2024/01/29 01:53:59;;;;;;;4.28;1.77;;;;;;;6.61;54.15;102664.63;7396453;19;20542;-57
2024/01/29 01:56:35;;;;;;;4.75;1.77;;;;;;;6.61;54.39;102665.47;7393914;19;20022;-57
2024/01/29 01:59:07;;;;;;;3.83;1.70;;;;;;;6.66;54.29;102660.94;7396060;19;20499;-56
2024/01/29 02:01:41;;;;;;;3.67;1.85;;;;;;;6.67;54.33;102672.34;7395835;19;20011;-54
2024/01/29 02:04:11;;;;;;;4.85;1.90;;;;;;;6.64;54.24;102672.41;7395731;19;20039;-56
2024/01/29 02:06:43;;;;;;;3.83;1.65;;;;;;;6.67;54.45;102675.81;7393622;19;20029;-56
2024/01/29 02:09:14;;;;;;;5.07;1.83;;;;;;;6.68;53.98;102672.31;7395505;19;20019;-56
2024/01/29 02:11:45;;;;;;;4.88;2.10;;;;;;;6.70;53.95;102680.16;7394255;19;20031;-54
2024/01/29 02:14:16;;;;;;;4.03;1.83;;;;;;;6.77;54.03;102674.69;7395454;19;20024;-56
2024/01/29 02:16:47;;;;;;;5.80;2.30;;;;;;;6.69;53.96;102681.94;7393343;19;20503;-57
2024/01/29 02:19:18;;;;;;;4.63;1.67;;;;;;;6.62;54.29;102674.22;7395069;19;20015;-57
2024/01/29 02:21:49;;;;;;;5.53;1.90;;;;;;;6.66;54.36;102679.38;7395369;19;20055;-57
2024/01/29 02:24:20;;;;;;;3.92;1.80;;;;;;;6.74;54.24;102681.81;7395446;19;20019;-54
2024/01/29 02:26:51;;;;;;;5.20;2.17;;;;;;;6.74;54.02;102689.69;7393100;19;20014;-56
2024/01/29 02:29:21;;;;;;;5.07;1.88;;;;;;;6.76;53.84;102677.38;7394838;19;20010;-58
2024/01/29 02:31:52;;;;;;;5.35;1.90;;;;;;;6.74;53.85;102680.03;7395165;19;20014;-54
2024/01/29 02:34:23;;;;;;;3.55;1.58;;;;;;;6.64;54.13;102675.94;7394981;19;20484;-57
2024/01/29 02:36:55;;;;;;;5.93;2.00;;;;;;;6.61;54.25;102683.03;7392162;19;20047;-56
2024/01/29 02:39:25;;;;;;;4.45;1.80;;;;;;;6.55;54.37;102678.78;7394637;19;20018;-57
2024/01/29 02:41:56;;;;;;;4.28;2.00;;;;;;;6.62;53.99;102675.09;7395234;19;20026;-56
2024/01/29 02:44:27;;;;;;;6.18;2.00;;;;;;;6.55;54.12;102668.25;7392787;19;20026;-55
2024/01/29 02:46:58;;;;;;;4.85;1.70;;;;;;;6.67;53.94;102678.47;7392118;19;20025;-57
2024/01/29 02:49:34;;;;;;;5.78;2.03;;;;;;;6.70;53.98;102682.78;7394039;19;20497;-57
2024/01/29 02:52:05;;;;;;;4.22;1.90;;;;;;;6.69;53.79;102678.44;7394538;19;20037;-54
2024/01/29 02:54:40;;;;;;;5.13;1.70;;;;;;;6.74;53.84;102681.81;7393698;19;20022;-56
2024/01/29 02:57:10;;;;;;;4.57;1.80;;;;;;;6.73;53.73;102686.22;7391887;19;20043;-55
2024/01/29 02:59:43;;;;;;;7.70;2.17;;;;;;;6.74;53.85;102687.94;7394227;19;20030;-55
2024/01/29 03:02:13;;;;;;;6.10;1.80;;;;;;;6.76;53.54;102682.66;7393473;19;20011;-57
2024/01/29 03:04:45;;;;;;;5.35;2.00;;;;;;;6.78;53.47;102675.53;7397394;19;20028;-56
2024/01/29 03:07:16;;;;;;;3.65;1.77;;;;;;;6.81;53.17;102678.09;7391241;19;20033;-57
2024/01/29 03:09:47;;;;;;;4.65;1.70;;;;;;;6.80;53.46;102671.97;7392811;19;20018;-54
2024/01/29 03:12:15;;;;;;;4.85;1.90;;;;;;;6.83;53.17;102664.00;7393596;19;20035;-56
2024/01/29 03:14:46;;;;;;;8.18;1.98;;;;;;;6.83;53.29;102665.78;7393608;19;20017;-56
2024/01/29 03:17:16;;;;;;;3.35;1.70;;;;;;;6.82;53.11;102664.03;7391187;19;20014;-56
2024/01/29 03:19:47;;;;;;;3.45;1.67;;;;;;;6.80;53.63;102660.59;7393298;19;20018;-57
2024/01/29 03:22:18;;;;;;;4.22;1.80;;;;;;;6.84;53.34;102660.44;7392847;19;20039;-53
2024/01/29 03:24:48;;;;;;;4.15;1.80;;;;;;;6.87;53.21;102661.25;7392984;19;20381;-56
2024/01/29 03:27:19;;;;;;;3.70;1.70;;;;;;;6.86;52.92;102657.75;7391010;19;20018;-55
2024/01/29 03:29:49;;;;;;;3.53;1.77;;;;;;;6.80;53.13;102645.66;7392380;19;20509;-57
2024/01/29 03:32:20;;;;;;;5.70;1.70;;;;;;;6.83;52.91;102635.03;7392518;19;20082;-57
2024/01/29 03:34:50;;;;;;;3.83;1.60;;;;;;;6.77;53.13;102640.47;7392374;19;20011;-57
2024/01/29 03:37:21;;;;;;;4.50;1.73;;;;;;;6.83;52.72;102636.81;7390639;19;20018;-58
2024/01/29 03:39:52;;;;;;;4.20;1.88;;;;;;;6.88;52.43;102645.44;7391765;19;20523;-58
2024/01/29 03:42:22;;;;;;;3.25;1.65;;;;;;;6.89;52.41;102643.66;7389570;19;20098;-58
2024/01/29 03:44:53;;;;;;;3.85;1.60;;;;;;;6.83;52.41;102631.53;7392400;19;20019;-57
2024/01/29 03:47:23;;;;;;;3.90;1.60;;;;;;;6.84;52.34;102636.75;7390303;19;20036;-58
2024/01/29 03:49:54;;;;;;;3.85;1.85;;;;;;;6.92;52.13;102641.81;7389519;19;20023;-58
2024/01/29 03:52:25;;;;;;;3.70;1.75;;;;;;;6.92;52.26;102631.28;7391666;19;20385;-58
2024/01/29 03:54:55;;;;;;;4.80;2.10;;;;;;;6.92;52.37;102635.69;7392017;19;20018;-58
2024/01/29 03:57:36;;;;;;;6.03;1.75;;;;;;;6.84;52.29;102626.22;7389892;19;20011;-58
2024/01/29 04:00:08;;;;;;;4.25;1.88;;;;;;;6.87;52.12;102619.13;7392617;19;20035;-56
2024/01/29 04:02:46;;;;;;;6.65;1.92;;;;;;;6.88;52.03;102610.34;7392672;19;20040;-58
2024/01/29 04:05:17;;;;;;;3.13;1.63;;;;;;;6.83;52.20;102610.47;7391248;19;20025;-56
2024/01/29 04:07:47;;;;;;;3.40;1.85;;;;;;;6.85;52.13;102619.19;7390843;19;20019;-57
2024/01/29 04:10:18;;;;;;;3.22;1.98;;;;;;;6.87;51.96;102625.28;7391687;19;20035;-57
2024/01/29 04:12:50;;;;;;;3.97;1.92;;;;;;;6.83;52.10;102621.88;7391711;19;20023;-57
2024/01/29 04:15:21;;;;;;;3.58;1.60;;;;;;;6.84;51.91;102622.72;7391555;19;20361;-56
2024/01/29 04:17:51;;;;;;;4.93;1.95;;;;;;;6.84;51.84;102626.22;7391266;19;20019;-58
2024/01/29 04:20:22;;;;;;;6.32;2.17;;;;;;;6.84;52.16;102626.22;7391118;19;20027;-57
2024/01/29 04:22:53;;;;;;;4.05;1.80;;;;;;;6.64;52.36;102628.56;7391589;19;20023;-57
2024/01/29 04:25:24;;;;;;;3.70;1.80;;;;;;;6.71;52.10;102634.50;7391253;19;20482;-57
2024/01/29 04:27:54;;;;;;;4.32;1.65;;;;;;;6.77;52.24;102639.59;7390704;19;20039;-55
2024/01/29 04:30:25;;;;;;;3.95;1.80;;;;;;;6.77;51.93;102637.81;7391466;19;20036;-54
2024/01/29 04:32:56;;;;;;;4.43;1.80;;;;;;;6.67;52.32;102635.47;7390556;19;20014;-55
2024/01/29 04:35:27;;;;;;;3.67;1.90;;;;;;;6.66;52.20;102647.78;7390785;19;20022;-56
2024/01/29 04:37:58;;;;;;;5.82;1.80;;;;;;;6.70;52.10;102643.31;7390874;19;20032;-58
2024/01/29 04:40:33;;;;;;;4.35;1.98;;;;;;;6.66;52.22;102642.53;7391042;19;20478;-57
2024/01/29 04:43:03;;;;;;;3.90;1.75;;;;;;;6.75;51.85;102641.41;7390773;19;20022;-57
2024/01/29 04:45:38;;;;;;;5.07;1.80;;;;;;;6.73;51.92;102635.31;7389594;19;20019;-58
2024/01/29 04:48:08;;;;;;;4.47;1.80;;;;;;;6.68;51.97;102637.19;7389528;19;20019;-56
2024/01/29 04:50:39;;;;;;;5.90;1.90;;;;;;;6.63;52.27;102636.47;7391117;19;20019;-58
2024/01/29 04:53:10;;;;;;;4.28;1.73;;;;;;;6.68;51.87;102635.47;7390451;19;20014;-57
2024/01/29 04:55:41;;;;;;;3.47;1.80;;;;;;;6.71;51.82;102632.72;7389624;19;20118;-57
2024/01/29 04:58:13;;;;;;;4.72;1.92;;;;;;;6.66;51.95;102629.34;7390605;19;20022;-54
2024/01/29 05:00:45;;;;;;;4.05;1.70;;;;;;;6.51;52.35;102638.53;7390651;19;20032;-54
2024/01/29 05:03:15;;;;;;;3.72;2.10;;;;;;;6.48;52.65;102638.59;7390354;19;20400;-55
2024/01/29 05:05:47;;;;;;;3.80;1.70;;;;;;;6.49;52.43;102635.09;7392873;19;20041;-57
2024/01/29 05:08:21;;;;;;;4.82;2.20;;;;;;;6.50;52.40;102642.06;7396674;19;20018;-56
2024/01/29 05:10:54;;;;;;;5.55;1.92;;;;;;;6.56;52.21;102646.28;7396354;19;20014;-56
2024/01/29 05:13:25;;;;;;;4.47;1.80;;;;;;;6.57;52.14;102641.00;7397783;19;20029;-55
2024/01/29 05:15:56;;;;;;;4.20;1.38;;;;;;;6.54;52.09;102633.19;7394587;19;20090;-57
2024/01/29 05:18:26;;;;;;;3.15;1.67;;;;;;;6.56;52.21;102635.75;7395587;19;20025;-55
2024/01/29 05:20:57;;;;;;;4.75;1.60;;;;;;;6.57;52.21;102626.97;7396367;19;20055;-57
2024/01/29 05:23:28;;;;;;;5.25;1.95;;;;;;;6.58;52.03;102620.81;7397605;19;20017;-57
2024/01/29 05:25:58;;;;;;;3.55;1.60;;;;;;;6.60;52.12;102624.25;7396174;19;20018;-58
2024/01/29 05:28:34;;;;;;;5.57;2.03;;;;;;;6.50;52.48;102625.41;7396022;19;20365;-54
2024/01/29 05:31:05;;;;;;;4.00;1.75;;;;;;;6.48;52.38;102625.44;7396940;19;20018;-55
2024/01/29 05:33:38;;;;;;;4.90;2.00;;;;;;;6.50;52.46;102631.53;7395705;19;20022;-56
2024/01/29 05:36:08;;;;;;;4.07;1.85;;;;;;;6.49;52.42;102628.97;7395191;19;20043;-55
2024/01/29 05:38:39;;;;;;;6.03;2.03;;;;;;;6.51;52.40;102627.13;7396742;19;20029;-54
2024/01/29 05:41:10;;;;;;;4.90;1.98;;;;;;;6.50;52.21;102635.94;7396995;19;20014;-57
2024/01/29 05:43:40;;;;;;;4.78;1.90;;;;;;;6.50;52.17;102635.94;7396783;19;20022;-53
2024/01/29 05:46:11;;;;;;;6.30;2.05;;;;;;;6.44;52.25;102636.94;7395178;19;20019;-57
2024/01/29 05:48:41;;;;;;;5.47;1.90;;;;;;;6.48;52.36;102633.34;7395199;19;20015;-56
2024/01/29 05:51:12;;;;;;;4.93;1.80;;;;;;;6.51;52.14;102629.75;7396609;19;20022;-57
2024/01/29 05:53:43;;;;;;;4.28;1.80;;;;;;;6.47;52.39;102620.22;7396493;19;20022;-57
2024/01/29 05:56:14;;;;;;;10.48;3.92;;;;;;;6.45;52.50;102622.03;7394240;19;20011;-56
2024/01/29 05:58:46;;;;;;;2.65;1.60;;;;;;;6.33;52.46;102620.56;7395909;19;20371;-56
2024/01/29 06:01:16;;;;;;;4.32;1.90;;;;;;;6.35;52.44;102626.69;7394796;19;20082;-57
2024/01/29 06:03:47;;;;;;;5.28;1.60;;;;;;;6.44;52.48;102626.44;7395959;19;20487;-56
2024/01/29 06:06:18;;;;;;;4.13;1.75;;;;;;;6.48;52.09;102633.34;7394470;19;20748;-58
2024/01/29 06:08:49;;;;;;;4.22;1.60;;;;;;;6.34;52.34;102630.22;7394845;19;20023;-58
2024/01/29 06:11:20;;;;;;;5.40;1.90;;;;;;;6.40;52.17;102623.91;7396037;19;20379;-59
2024/01/29 06:13:50;;;;;;;3.50;1.55;;;;;;;6.39;52.50;102625.69;7394243;19;20416;-56
2024/01/29 06:16:25;;;;;;;4.13;1.83;;;;;;;6.38;52.44;102618.72;7393020;19;20025;-59
2024/01/29 06:18:55;;;;;;;3.60;1.90;;;;;;;6.35;52.38;102622.28;7395550;19;20039;-56
2024/01/29 06:21:26;;;;;;;5.28;1.80;;;;;;;6.43;52.30;102622.06;7395267;19;20014;-54
2024/01/29 06:23:57;;;;;;;5.20;2.10;;;;;;;6.41;51.97;102623.91;7393230;19;20022;-55
2024/01/29 06:26:31;;;;;;;4.72;2.15;;;;;;;6.35;52.27;102619.63;7392901;19;20032;-55
2024/01/29 06:29:02;;;;;;;4.13;1.90;;;;;;;6.40;52.08;102616.88;7393972;19;20043;-56
2024/01/29 06:31:39;;;;;;;6.20;2.50;;;;;;;6.37;51.89;102616.97;7395095;19;20043;-56
2024/01/29 06:34:10;;;;;;;4.40;1.80;;;;;;;6.36;51.85;102628.41;7394984;19;20022;-56
2024/01/29 06:36:40;;;;;;;6.13;1.98;;;;;;;6.41;52.21;102623.00;7393342;19;20039;-56
2024/01/29 06:39:11;;;;;;;5.35;2.00;;;;;;;6.48;51.90;102629.84;7395061;19;20019;-57
2024/01/29 06:41:41;;;;;;;4.53;1.95;;;;;;;6.45;51.97;102624.66;7394964;19;20014;-57
2024/01/29 06:44:12;;;;;;;5.13;2.22;;;;;;;6.28;52.13;102622.47;7393947;19;20039;-56
2024/01/29 06:46:42;;;;;;;4.18;1.88;;;;;;;6.28;52.20;102604.91;7391866;19;20022;-56
2024/01/29 06:49:27;;;;;;;4.68;2.17;;;;;;;6.34;52.02;102607.41;7394101;19;20490;-56
2024/01/29 06:51:59;;;;;;;4.70;1.88;;;;;;;6.23;52.46;102604.19;7395894;19;20019;-55
2024/01/29 06:54:35;;;;;;;4.40;1.88;;;;;;;6.36;52.24;102609.97;7395980;19;20081;-54
2024/01/29 06:57:06;;;;;;;5.38;1.90;;;;;;;6.39;52.09;102612.53;7394329;19;20381;-53
2024/01/29 06:59:38;;;;;;;4.85;2.00;;;;;;;6.34;52.32;102617.06;7393381;19;20344;-57
2024/01/29 07:02:09;;;;;;;5.32;2.10;;;;;;;6.27;52.39;102629.50;7395274;19;20015;-56
2024/01/29 07:04:41;;;;;;;6.30;2.15;;;;;;;6.31;52.60;102627.66;7394093;19;20033;-56
2024/01/29 07:07:12;;;;;;;3.65;1.98;;;;;;;6.23;52.88;102632.25;7391910;19;20019;-56
2024/01/29 07:09:43;;;;;;;5.20;2.10;;;;;;;6.29;52.78;102626.81;7392751;19;20031;-53
2024/01/29 07:12:15;;;;;;;4.78;2.28;;;;;;;6.34;52.45;102628.44;7394511;19;20026;-56
2024/01/29 07:14:45;;;;;;;4.82;1.90;;;;;;;6.31;52.84;102622.41;7394009;19;20379;-55
2024/01/29 07:17:16;;;;;;;4.90;2.00;;;;;;;6.25;53.23;102622.53;7391352;19;20018;-53
2024/01/29 07:19:48;;;;;;;5.15;2.10;;;;;;;6.29;52.74;102632.94;7393336;19;20018;-57
2024/01/29 07:22:19;;;;;;;5.47;2.00;;;;;;;6.21;53.10;102639.31;7393550;19;20078;-55
2024/01/29 07:24:50;;;;;;;5.45;2.10;;;;;;;6.27;53.12;102637.41;7393439;19;20026;-58
2024/01/29 07:27:21;;;;;;;4.70;2.13;;;;;;;6.24;53.23;102641.88;7389598;19;20086;-58
2024/01/29 07:29:51;;;;;;;6.07;2.10;;;;;;;6.26;53.28;102653.22;7391505;19;20019;-58
2024/01/29 07:32:21;;;;;;;5.32;2.20;;;;;;;6.23;53.52;102653.31;7392730;19;20018;-57
2024/01/29 07:34:52;;;;;;;7.35;2.35;;;;;;;6.19;53.32;102642.00;7393081;19;20466;-58
2024/01/29 07:37:22;;;;;;;5.35;2.40;;;;;;;6.18;53.34;102639.38;7390945;19;20014;-57
2024/01/29 07:39:53;;;;;;;4.78;2.30;;;;;;;6.27;53.33;102632.13;7392848;19;20026;-56
2024/01/29 07:42:24;;;;;;;7.50;2.50;;;;;;;6.20;53.76;102633.19;7392760;19;20018;-56
2024/01/29 07:44:54;;;;;;;6.20;2.58;;;;;;;6.23;53.98;102629.63;7392870;19;20022;-55
2024/01/29 07:47:26;;;;;;;4.57;2.22;;;;;;;6.17;53.83;102630.63;7390575;19;20018;-54
2024/01/29 07:49:57;;;;;;;5.18;2.20;;;;;;;6.21;53.59;102631.41;7391366;19;20015;-57
2024/01/29 07:52:30;;;;;;;6.32;2.70;;;;;;;6.26;53.55;102640.06;7392606;19;20513;-55
2024/01/29 07:55:00;;;;;;;6.15;2.72;;;;;;;6.28;53.38;102628.59;7390741;19;20089;-56
2024/01/29 07:57:41;;;;;;;7.90;2.58;;;;;;;6.34;53.48;102638.13;7390279;19;20364;-57
2024/01/29 08:00:13;;;;;;;6.65;2.40;;;;;;;6.40;53.46;102644.97;7392379;19;20019;-57
2024/01/29 08:02:45;;;;;;;7.00;2.65;;;;;;;6.40;53.51;102651.09;7392335;19;20022;-57
2024/01/29 08:05:16;;;;;;;7.18;2.38;;;;;;;6.32;53.82;102650.44;7392085;19;20018;-57
2024/01/29 08:07:46;;;;;;;6.78;2.30;;;;;;;6.39;53.41;102659.91;7388821;19;20034;-54
2024/01/29 08:10:17;;;;;;;5.68;2.60;;;;;;;6.40;53.68;102655.50;7390333;19;20011;-56
2024/01/29 08:12:46;;;;;;;6.85;2.55;;;;;;;6.46;53.79;102671.13;7390355;19;20102;-57
2024/01/29 08:15:17;;;;;;;4.93;2.20;;;;;;;6.54;53.40;102667.41;7391552;19;20139;-56
2024/01/29 08:17:46;;;;;;;4.90;2.15;;;;;;;6.57;53.41;102669.09;7391572;19;20014;-57
2024/01/29 08:20:18;;;;;;;6.50;2.67;;;;;;;6.59;53.29;102669.91;7390693;19;20043;-56
2024/01/29 08:22:48;;;;;;;6.60;2.60;;;;;;;6.64;53.45;102669.78;7391796;19;20018;-54
2024/01/29 08:25:20;;;;;;;5.32;2.10;;;;;;;6.63;53.50;102663.66;7391133;19;20039;-56
2024/01/29 08:27:50;;;;;;;9.30;2.78;;;;;;;6.59;53.36;102664.63;7391155;19;20018;-57
2024/01/29 08:30:20;;;;;;;5.55;2.40;;;;;;;6.57;53.51;102658.56;7389629;19;20507;-57
2024/01/29 08:32:49;;;;;;;5.30;2.55;;;;;;;6.62;53.79;102656.66;7391427;19;20029;-57
2024/01/29 08:35:20;;;;;;;5.72;2.63;;;;;;;6.67;53.64;102664.44;7391044;19;20727;-57
2024/01/29 08:37:49;;;;;;;6.80;2.50;;;;;;;6.74;53.33;102663.38;7390873;19;20348;-55
2024/01/29 08:40:20;;;;;;;7.18;3.08;;;;;;;6.82;53.41;102666.66;7396479;19;20035;-57
2024/01/29 08:42:49;;;;;;;6.53;2.83;;;;;;;6.82;53.61;102670.16;7398929;19;20022;-57
2024/01/29 08:45:20;;;;;;;6.60;2.70;;;;;;;6.83;53.68;102665.78;7398385;19;20019;-57
2024/01/29 08:47:50;;;;;;;8.07;2.75;;;;;;;6.77;53.36;102664.16;7398260;19;20028;-53
2024/01/29 08:50:21;;;;;;;7.45;2.78;;;;;;;6.82;53.43;102662.25;7396412;19;20010;-55
2024/01/29 08:52:50;;;;;;;8.35;2.60;;;;;;;6.91;53.22;102678.75;7398582;19;20052;-56
2024/01/29 08:55:20;;;;;;;7.80;3.17;;;;;;;6.91;53.48;102678.75;7396844;19;20026;-57
2024/01/29 08:57:50;;;;;;;6.85;2.42;;;;;;;6.90;53.38;102675.22;7397896;19;20014;-53
2024/01/29 09:00:21;;;;;;;7.25;2.47;;;;;;;7.03;53.41;102668.72;7398329;19;20047;-56
2024/01/29 09:02:53;;;;;;;5.78;2.60;;;;;;;7.09;53.32;102675.56;7397946;19;20388;-57
2024/01/29 09:05:23;;;;;;;6.20;2.50;;;;;;;7.15;53.28;102683.31;7396315;19;20022;-53
2024/01/29 09:07:54;;;;;;;5.13;2.65;;;;;;;7.22;52.91;102679.59;7398533;19;20518;-57
2024/01/29 09:10:34;;;;;;;7.70;3.13;;;;;;;7.11;53.34;102671.13;7395190;19;20010;-56
2024/01/29 09:13:04;;;;;;;6.22;2.65;;;;;;;7.19;53.35;102684.09;7397682;19;20011;-55
2024/01/29 09:15:39;;;;;;;6.80;2.92;;;;;;;7.28;53.08;102684.66;7396831;19;20085;-57
2024/01/29 09:18:09;;;;;;;8.00;3.00;;;;;;;7.26;53.09;102686.50;7397392;19;20022;-56
2024/01/29 09:20:40;;;;;;;9.90;3.00;;;;;;;7.37;53.19;102688.84;7397897;19;20027;-56
2024/01/29 09:23:10;;;;;;;6.53;2.80;;;;;;;7.44;52.87;102695.66;7397537;19;20431;-57
2024/01/29 09:25:42;;;;;;;8.85;3.10;;;;;;;7.48;52.66;102697.28;7394627;19;20036;-55
2024/01/29 09:28:13;;;;;;;8.40;3.38;;;;;;;7.55;52.71;102700.59;7397199;19;20475;-55
2024/01/29 09:30:44;;;;;;;6.22;2.78;;;;;;;7.54;52.46;102696.22;7393130;19;20015;-57
2024/01/29 09:33:21;;;;;;;9.95;3.05;;;;;;;7.55;52.75;102690.94;7397408;19;20015;-56
2024/01/29 09:35:53;;;;;;;7.32;3.20;;;;;;;7.54;52.63;102688.31;7394214;19;20025;-57
2024/01/29 09:38:23;;;;;;;8.23;3.13;;;;;;;7.58;52.78;102698.72;7397082;19;20010;-57
2024/01/29 09:40:57;;;;;;;6.57;3.10;;;;;;;7.63;52.59;102693.34;7396938;19;20018;-57
2024/01/29 09:43:34;;;;;;;6.82;3.05;;;;;;;7.66;52.81;102695.84;7396466;19;20019;-57
2024/01/29 09:46:05;;;;;;;8.02;3.28;;;;;;;7.70;52.51;102694.84;7393368;19;20493;-57
2024/01/29 09:48:38;;;;;;;7.38;3.25;;;;;;;7.69;52.54;102697.56;7397115;19;20021;-57
2024/01/29 09:51:13;;;;;;;6.28;3.10;;;;;;;7.73;52.80;102694.78;7392145;19;20383;-57
2024/01/29 09:53:44;;;;;;;6.88;2.92;;;;;;;7.75;52.47;102698.25;7395920;19;20018;-57
2024/01/29 09:56:15;;;;;;;7.82;3.08;;;;;;;7.79;52.58;102701.66;7394827;19;20022;-57
2024/01/29 09:58:45;;;;;;;8.13;2.90;;;;;;;7.87;52.45;102709.31;7395890;19;20019;-52
2024/01/29 10:01:18;;;;;;;6.63;2.90;;;;;;;7.96;52.46;102699.34;7395621;19;20010;-53
2024/01/29 10:03:49;;;;;;;7.00;3.00;;;;;;;8.04;52.26;102713.13;7396424;19;20010;-54
2024/01/29 10:06:20;;;;;;;8.45;3.28;;;;;;;8.10;52.23;102708.59;7394465;19;20029;-54
2024/01/29 10:08:51;;;;;;;6.20;2.88;;;;;;;8.12;52.48;102718.19;7396102;19;20017;-52
2024/01/29 10:11:22;;;;;;;7.10;2.90;;;;;;;8.16;52.10;102717.16;7396108;19;20018;-53
2024/01/29 10:13:59;;;;;;;5.68;2.70;;;;;;;8.17;52.25;102708.34;7395598;19;20086;-56
2024/01/29 10:16:37;;;;;;;;;;;;;;;8.14;52.36;102718.16;7394261;19;20022;-55
2024/01/29 10:19:09;;;;;;;7.97;2.85;;;;;;;8.13;52.96;102719.03;7395718;19;19919;-55
2024/01/29 10:21:44;;;;;;;6.32;2.80;;;;;;;8.26;52.63;102721.25;7395536;19;20042;-55
2024/01/29 10:24:16;;;;;;;6.45;2.65;;;;;;;8.33;52.35;102726.34;7395529;19;20014;-54
2024/01/29 10:26:47;;;;;;;6.30;2.83;;;;;;;8.26;52.69;102720.38;7393232;19;20351;-56
2024/01/29 10:29:18;;;;;;;5.55;2.67;;;;;;;8.37;52.64;102728.84;7394862;19;20017;-56
2024/01/29 10:31:48;;;;;;;6.63;3.00;;;;;;;8.44;52.56;102721.59;7395126;19;20018;-54
2024/01/29 10:34:23;;;;;;;4.80;2.60;;;;;;;8.44;53.07;102726.88;7394171;19;20023;-54
2024/01/29 10:36:56;;;;;;;5.50;2.63;;;;;;;8.54;52.96;102718.56;7393228;19;20033;-53
2024/01/29 10:39:28;;;;;;;5.28;2.55;;;;;;;8.54;52.64;102723.84;7394598;19;20010;-53
2024/01/29 10:41:59;;;;;;;7.60;2.92;;;;;;;8.61;52.69;102723.66;7395040;19;20036;-56
2024/01/29 10:44:39;;;;;;;4.60;2.42;;;;;;;8.63;52.99;102724.50;7394982;19;20497;-56
2024/01/29 10:47:23;;;;;;;5.70;2.53;;;;;;;8.63;52.95;102711.28;7392409;19;20438;-58
2024/01/29 10:49:56;;;;;;;5.88;2.60;;;;;;;8.70;52.81;102716.31;7392363;19;20383;-58
2024/01/29 10:52:29;;;;;;;9.13;3.03;;;;;;;8.81;52.94;102715.06;7394697;19;20043;-57
2024/01/29 10:55:02;;;;;;;9.47;3.03;;;;;;;8.82;52.77;102712.38;7395038;19;20014;-55
2024/01/29 10:57:47;;;;;;;5.47;2.50;;;;;;;8.92;52.78;102718.19;7391994;19;20279;-58
2024/01/29 11:00:19;;;;;;;9.30;2.90;;;;;;;8.93;52.91;102712.88;7392660;19;20014;-55
2024/01/29 11:02:49;;;;;;;6.60;2.90;;;;;;;8.97;53.03;102717.13;7390028;19;20022;-57
2024/01/29 11:05:21;;;;;;;7.07;3.10;;;;;;;9.06;53.06;102721.22;7393663;19;20019;-57
2024/01/29 11:07:54;;;;;;;6.45;2.92;;;;;;;9.11;53.12;102719.25;7392509;19;20035;-57
2024/01/29 11:10:25;;;;;;;7.88;3.03;;;;;;;9.13;53.23;102721.88;7391500;19;20014;-57
2024/01/29 11:13:00;;;;;;;6.53;2.70;;;;;;;9.19;53.18;102718.97;7394120;19;20047;-55
2024/01/29 11:15:37;;;;;;;5.80;3.17;;;;;;;9.30;53.09;102722.09;7393203;19;20018;-56
2024/01/29 11:18:10;;;;;;;8.13;3.25;;;;;;;9.35;53.31;102733.38;7393522;19;20014;-56
2024/01/29 11:20:44;;;;;;;6.40;3.28;;;;;;;9.35;53.48;102716.63;7393647;19;20018;-57
2024/01/29 11:23:20;;;;;;;7.93;3.42;;;;;;;9.45;53.00;102728.59;7393804;19;20051;-58
2024/01/29 11:26:00;;;;;;;8.15;3.38;;;;;;;9.47;53.32;102725.00;7392329;19;20025;-54
2024/01/29 11:28:37;;;;;;;6.63;3.38;;;;;;;9.59;53.11;102722.81;7393449;19;20364;-57
2024/01/29 11:31:11;;;;;;;7.75;3.60;;;;;;;9.63;53.07;102727.94;7391805;19;20014;-56
2024/01/29 11:33:43;;;;;;;6.78;3.10;;;;;;;9.63;53.28;102724.41;7391436;19;20040;-58
2024/01/29 11:36:16;;;;;;;8.57;3.70;;;;;;;9.69;53.39;102730.34;7392032;19;20014;-56
2024/01/29 11:38:49;;;;;;;6.55;3.30;;;;;;;9.71;53.35;102724.97;7393556;19;20023;-56
2024/01/29 11:41:22;;;;;;;8.52;3.70;;;;;;;9.78;53.34;102723.84;7392986;19;20507;-53
2024/01/29 11:43:53;;;;;;;9.38;3.33;;;;;;;9.81;53.26;102714.94;7393170;19;20027;-56
2024/01/29 11:46:26;;;;;;;7.00;3.38;;;;;;;9.84;53.36;102707.69;7391387;19;20014;-54
2024/01/29 11:48:58;;;;;;;12.30;3.92;;;;;;;9.84;53.68;102712.13;7391184;19;20375;-56
2024/01/29 11:51:37;;;;;;;7.90;4.20;;;;;;;9.85;53.82;102714.75;7391261;19;20026;-55
2024/01/29 11:54:08;;;;;;;7.22;3.45;;;;;;;9.93;53.71;102714.44;7392436;19;20011;-57
2024/01/29 11:56:39;;;;;;;7.10;3.53;;;;;;;9.96;53.67;102712.53;7390774;19;20373;-57